Time;durP1;ratioP1;P1;durP2;ratioP2;P2;SDS_P1;SDS_P2;PMS_P1;PMS_P2;Temp;Humidity;BMP_temperature;BMP_pressure;BME280_temperature;BME280_humidity;BME280_pressure;Samples;Min_cycle;Max_cycle;Signal;HPM_P1;HPM_P2
2021/07/09 00:01:51;;;;;;;16.48;14.93;;;;;;;24.61;66.77;100327.66;5029191;28;20123;-70
2021/07/09 00:04:18;;;;;;;15.63;13.55;;;;;;;24.56;66.01;100315.78;5029470;28;20049;-72
2021/07/09 00:06:45;;;;;;;13.35;12.02;;;;;;;24.58;65.82;100300.22;5028794;28;20054;-73
2021/07/09 00:09:12;;;;;;;10.98;8.15;;;;;;;24.70;64.07;100374.22;5029213;28;20574;-69
2021/07/09 00:11:43;;;;;;;12.50;10.38;;;;;;;25.15;61.43;100328.63;5028181;28;20145;-70
2021/07/09 00:14:11;;;;;;;13.20;8.55;;;;;;;25.32;60.99;100356.16;5027740;28;20042;-70
2021/07/09 00:16:41;;;;;;;9.23;7.97;;;;;;;25.29;60.47;100364.66;5028206;28;20057;-69
2021/07/09 00:19:08;;;;;;;10.18;8.70;;;;;;;25.19;58.29;100346.13;5028323;28;20477;-71
2021/07/09 00:21:37;;;;;;;10.38;8.75;;;;;;;25.08;58.38;100335.06;5028338;28;20054;-71
2021/07/09 00:24:05;;;;;;;7.22;6.00;;;;;;;24.98;57.96;100362.50;5028346;28;20050;-70
2021/07/09 00:26:32;;;;;;;8.48;7.15;;;;;;;24.86;58.38;100364.94;5028168;28;20049;-71
2021/07/09 00:29:01;;;;;;;5.50;4.10;;;;;;;24.71;58.45;100359.69;5027126;28;20057;-71
2021/07/09 00:31:30;;;;;;;5.13;3.60;;;;;;;24.54;58.95;100361.06;5028162;28;20049;-70
2021/07/09 00:33:58;;;;;;;6.20;3.67;;;;;;;24.34;59.70;100374.41;5028584;28;20049;-70
2021/07/09 00:36:25;;;;;;;5.10;3.90;;;;;;;24.08;60.94;100392.09;5028353;28;20049;-71
2021/07/09 00:38:52;;;;;;;13.20;4.68;;;;;;;23.34;64.89;100395.16;5027471;28;20053;-72
2021/07/09 00:41:19;;;;;;;7.63;3.90;;;;;;;22.79;67.32;100408.16;5027970;28;20068;-71
2021/07/09 00:43:47;;;;;;;5.90;4.47;;;;;;;22.47;68.54;100405.69;5027818;28;20060;-73
2021/07/09 00:46:15;;;;;;;7.43;4.47;;;;;;;22.13;70.37;100411.56;5028049;28;20050;-70
2021/07/09 00:48:42;;;;;;;8.88;3.88;;;;;;;21.88;71.40;100427.09;5028519;28;20552;-71
2021/07/09 00:51:11;;;;;;;6.38;4.50;;;;;;;21.70;72.39;100430.91;5028263;28;20057;-70
2021/07/09 00:53:38;;;;;;;8.20;4.75;;;;;;;21.56;72.68;100419.06;5027160;28;20049;-70
2021/07/09 00:56:06;;;;;;;6.57;5.05;;;;;;;21.33;73.49;100412.81;5027055;28;20398;-70
2021/07/09 00:58:33;;;;;;;6.60;4.65;;;;;;;21.19;73.71;100388.41;5026804;28;20129;-68
2021/07/09 01:01:00;;;;;;;9.73;6.03;;;;;;;21.07;74.49;100375.53;5028086;28;20072;-70
2021/07/09 01:03:28;;;;;;;10.52;6.15;;;;;;;21.06;75.49;100377.38;5027777;28;20041;-71
2021/07/09 01:05:55;;;;;;;10.30;6.80;;;;;;;20.93;75.25;100374.44;5027089;28;20237;-70
2021/07/09 01:08:22;;;;;;;12.30;8.00;;;;;;;20.79;75.55;100363.44;5026968;28;20049;-70
2021/07/09 01:10:49;;;;;;;10.52;8.20;;;;;;;20.59;75.38;100352.25;5027188;28;20050;-69
2021/07/09 01:13:17;;;;;;;10.73;8.32;;;;;;;20.45;75.69;100326.16;5027990;28;20045;-71
2021/07/09 01:15:44;;;;;;;11.75;8.68;;;;;;;20.35;76.29;100330.91;5028938;28;20056;-71
2021/07/09 01:18:12;;;;;;;10.32;8.63;;;;;;;20.30;76.22;100322.53;5027605;28;20045;-71
2021/07/09 01:20:40;;;;;;;18.58;9.32;;;;;;;20.19;76.50;100318.38;5027555;28;20046;-72
2021/07/09 01:23:10;;;;;;;15.48;9.68;;;;;;;20.16;76.89;100342.84;5028062;28;20517;-73
2021/07/09 01:25:38;;;;;;;15.18;10.13;;;;;;;20.15;77.43;100335.81;5028042;28;20053;-72
2021/07/09 01:28:09;;;;;;;12.90;10.73;;;;;;;20.16;77.11;100321.41;5027905;28;20045;-72
2021/07/09 01:30:37;;;;;;;15.18;10.82;;;;;;;20.14;77.50;100310.84;5029501;28;20052;-72
2021/07/09 01:33:05;;;;;;;12.68;9.50;;;;;;;20.14;77.23;100304.66;5028868;28;20109;-71
2021/07/09 01:35:32;;;;;;;12.38;9.35;;;;;;;20.16;77.35;100302.63;5029045;28;20058;-72
2021/07/09 01:38:01;;;;;;;15.40;9.98;;;;;;;20.20;76.89;100309.31;5027918;28;20053;-72
2021/07/09 01:40:30;;;;;;;14.75;8.70;;;;;;;20.24;76.81;100294.56;5026386;28;20057;-72
2021/07/09 01:42:59;;;;;;;16.17;9.15;;;;;;;20.26;76.43;100292.53;5027881;28;20050;-71
2021/07/09 01:45:26;;;;;;;28.92;14.10;;;;;;;20.26;76.42;100281.81;5027724;28;20512;-71
2021/07/09 01:47:57;;;;;;;31.13;22.75;;;;;;;20.32;76.55;100277.59;5027067;28;20041;-70
2021/07/09 01:50:25;;;;;;;21.65;15.70;;;;;;;20.33;76.48;100260.47;5026999;28;20505;-73
2021/07/09 01:52:52;;;;;;;16.27;10.57;;;;;;;20.31;76.18;100255.31;5027107;28;20056;-72
2021/07/09 01:55:20;;;;;;;15.15;9.95;;;;;;;20.29;75.97;100246.56;5026910;28;20140;-72
2021/07/09 01:57:47;;;;;;;18.23;10.20;;;;;;;20.24;76.27;100246.28;5025530;28;20046;-73
2021/07/09 02:00:18;;;;;;;17.10;10.40;;;;;;;20.24;76.27;100246.28;5030361;28;20042;-72
2021/07/09 02:02:45;;;;;;;17.45;10.02;;;;;;;20.23;76.21;100240.06;5026798;28;20490;-72
2021/07/09 02:05:14;;;;;;;17.48;10.68;;;;;;;20.21;76.26;100225.19;5027294;28;20069;-73
2021/07/09 02:07:42;;;;;;;19.02;11.98;;;;;;;20.23;76.17;100228.50;5026787;28;20045;-72
2021/07/09 02:10:11;;;;;;;17.65;11.52;;;;;;;20.26;76.09;100228.19;5026512;28;20051;-72
2021/07/09 02:12:38;;;;;;;19.15;11.32;;;;;;;20.30;76.30;100223.28;5026915;28;20077;-71
2021/07/09 02:15:08;;;;;;;18.55;10.85;;;;;;;20.29;76.23;100222.44;5028213;28;20489;-72
2021/07/09 02:17:37;;;;;;;15.55;10.20;;;;;;;20.27;76.04;100192.28;5026949;28;20045;-73
2021/07/09 02:20:06;;;;;;;20.88;11.65;;;;;;;20.19;76.52;100170.88;5027717;28;20527;-72
2021/07/09 02:22:33;;;;;;;23.77;11.65;;;;;;;20.12;76.70;100143.94;5026500;28;20072;-70
2021/07/09 02:25:05;;;;;;;19.55;10.48;;;;;;;20.05;76.97;100111.63;5026631;28;20076;-72
2021/07/09 02:27:32;;;;;;;25.67;12.43;;;;;;;20.02;76.87;100103.94;5026729;28;20096;-72
2021/07/09 02:29:59;;;;;;;22.88;11.68;;;;;;;20.01;76.90;100118.34;5024562;28;20564;-73
2021/07/09 02:32:26;;;;;;;24.30;11.32;;;;;;;20.01;77.17;100110.31;5026619;28;20053;-73
2021/07/09 02:34:55;;;;;;;21.83;12.18;;;;;;;20.01;76.80;100115.66;5026646;28;20053;-70
2021/07/09 02:37:21;;;;;;;16.70;11.18;;;;;;;20.01;77.12;100114.84;5025830;28;20049;-72
2021/07/09 02:39:48;;;;;;;22.02;13.95;;;;;;;20.03;77.13;100097.56;5026079;28;20058;-71
2021/07/09 02:42:15;;;;;;;24.05;13.57;;;;;;;20.05;77.29;100087.50;5026889;28;20045;-71
2021/07/09 02:44:42;;;;;;;25.95;14.40;;;;;;;20.11;76.80;100114.63;5025532;28;20512;-72
2021/07/09 02:47:09;;;;;;;26.33;13.65;;;;;;;20.13;76.89;100121.47;5026632;28;20490;-72
2021/07/09 02:49:36;;;;;;;20.30;12.57;;;;;;;20.18;76.82;100137.03;5026212;28;20050;-73
2021/07/09 02:52:05;;;;;;;25.60;14.77;;;;;;;20.19;76.85;100134.16;5025536;28;20493;-73
2021/07/09 02:54:32;;;;;;;25.35;13.52;;;;;;;20.27;76.67;100108.31;5026369;28;20049;-73
2021/07/09 02:56:59;;;;;;;22.95;12.52;;;;;;;20.17;77.30;100098.66;5026575;28;20056;-69
2021/07/09 02:59:25;;;;;;;23.00;12.68;;;;;;;20.15;77.48;100083.75;5024268;28;20049;-70
2021/07/09 03:01:52;;;;;;;23.27;14.02;;;;;;;20.15;77.36;100075.69;5026306;28;20276;-70
2021/07/09 03:04:19;;;;;;;18.60;12.75;;;;;;;20.17;77.29;100089.78;5026672;28;20059;-70
2021/07/09 03:06:46;;;;;;;21.33;13.27;;;;;;;20.19;77.22;100090.44;5026363;28;20060;-71
2021/07/09 03:09:14;;;;;;;23.65;13.57;;;;;;;20.21;77.22;100096.47;5028460;28;20041;-69
2021/07/09 03:11:41;;;;;;;20.73;13.77;;;;;;;20.25;77.26;100095.06;5025758;28;20057;-71
2021/07/09 03:14:09;;;;;;;23.80;12.82;;;;;;;20.25;77.48;100093.22;5025181;28;20050;-71
2021/07/09 03:16:37;;;;;;;27.63;14.60;;;;;;;20.27;77.56;100094.91;5026531;28;20046;-70
2021/07/09 03:19:07;;;;;;;23.45;13.10;;;;;;;20.29;77.54;100095.56;5025485;28;20125;-70
2021/07/09 03:21:34;;;;;;;22.38;17.13;;;;;;;20.29;77.75;100087.50;5025663;28;20071;-70
2021/07/09 03:24:01;;;;;;;19.85;12.05;;;;;;;20.30;77.49;100083.84;5025972;28;20477;-70
2021/07/09 03:26:29;;;;;;;22.83;13.07;;;;;;;20.28;77.54;100072.44;5025224;28;20056;-69
2021/07/09 03:28:58;;;;;;;16.23;11.52;;;;;;;20.28;77.17;100080.50;5024142;28;20049;-70
2021/07/09 03:31:26;;;;;;;17.67;12.77;;;;;;;20.27;77.49;100084.19;4978125;28;20448;-69
2021/07/09 03:33:53;;;;;;;22.85;15.10;;;;;;;20.28;77.34;100092.03;5029314;28;20427;-69
2021/07/09 03:36:20;;;;;;;19.17;12.52;;;;;;;20.32;77.36;100081.81;5031076;28;20505;-72
2021/07/09 03:38:48;;;;;;;19.30;12.52;;;;;;;20.36;77.16;100100.03;5029558;28;20056;-68
2021/07/09 03:41:15;;;;;;;22.35;15.02;;;;;;;20.42;77.35;100115.41;5029326;28;20052;-68
2021/07/09 03:43:43;;;;;;;22.88;13.70;;;;;;;20.47;77.47;100108.66;5029210;28;20045;-69
2021/07/09 03:46:10;;;;;;;26.60;14.00;;;;;;;20.50;76.98;100111.00;5028847;28;20049;-69
2021/07/09 03:48:38;;;;;;;22.58;13.95;;;;;;;20.56;77.17;100099.53;5028917;28;20049;-70
2021/07/09 03:51:05;;;;;;;22.95;13.13;;;;;;;20.61;77.12;100095.31;5028889;28;20045;-70
2021/07/09 03:53:31;;;;;;;19.98;14.07;;;;;;;20.63;77.04;100079.06;5028619;28;20056;-69
2021/07/09 03:55:58;;;;;;;19.77;12.73;;;;;;;20.67;76.97;100072.31;5028637;28;20057;-70
2021/07/09 03:58:25;;;;;;;18.33;13.35;;;;;;;20.68;76.74;100079.34;5026591;28;20046;-71
2021/07/09 04:00:54;;;;;;;24.42;17.00;;;;;;;20.76;76.98;100084.66;5029070;28;20213;-70
2021/07/09 04:03:21;;;;;;;21.35;13.02;;;;;;;20.86;76.54;100088.94;5029319;28;20045;-69
2021/07/09 04:05:48;;;;;;;17.23;12.73;;;;;;;20.92;76.58;100088.19;5028693;28;20057;-69
2021/07/09 04:08:14;;;;;;;19.17;11.48;;;;;;;20.96;76.48;100084.97;5029084;28;20041;-69
2021/07/09 04:10:41;;;;;;;20.13;13.38;;;;;;;20.99;76.45;100094.50;5029062;28;20050;-69
2021/07/09 04:13:08;;;;;;;23.85;12.95;;;;;;;21.04;76.63;100085.91;5029035;28;20656;-70
2021/07/09 04:15:35;;;;;;;19.95;13.68;;;;;;;21.12;76.17;100088.47;5030407;28;20049;-70
2021/07/09 04:18:03;;;;;;;17.88;14.65;;;;;;;21.17;76.22;100094.97;5030182;28;20048;-70
2021/07/09 04:20:30;;;;;;;18.85;14.05;;;;;;;21.27;76.06;100096.56;5030509;28;20049;-70
2021/07/09 04:22:57;;;;;;;19.27;13.25;;;;;;;21.34;76.13;100097.50;5040349;28;20057;-69
2021/07/09 04:25:25;;;;;;;18.35;12.60;;;;;;;21.36;76.10;100082.84;5039266;28;20049;-70
2021/07/09 04:27:52;;;;;;;16.75;12.05;;;;;;;21.41;75.84;100082.31;5036310;28;20052;-69
2021/07/09 04:30:19;;;;;;;21.70;11.75;;;;;;;21.40;76.13;100069.88;5037664;28;20046;-68
2021/07/09 04:32:46;;;;;;;16.98;12.82;;;;;;;21.51;75.90;100077.47;5037474;28;20124;-70
2021/07/09 04:35:14;;;;;;;18.08;12.23;;;;;;;21.64;75.73;100076.00;5030378;28;20045;-67
2021/07/09 04:37:42;;;;;;;18.17;12.18;;;;;;;21.72;75.41;100092.84;5011222;28;20052;-69
2021/07/09 04:40:11;;;;;;;17.00;12.20;;;;;;;21.84;75.19;100113.88;5029219;28;20049;-70
2021/07/09 04:42:38;;;;;;;19.80;12.93;;;;;;;21.93;74.91;100118.97;5029362;28;20050;-70
2021/07/09 04:45:06;;;;;;;16.35;11.52;;;;;;;22.03;74.61;100107.06;5029429;28;20061;-70
2021/07/09 04:47:33;;;;;;;17.02;11.70;;;;;;;22.08;74.39;100105.47;5029344;28;20041;-69
2021/07/09 04:50:00;;;;;;;14.98;11.65;;;;;;;22.17;74.29;100125.03;5015129;28;20492;-68
2021/07/09 04:52:28;;;;;;;15.32;11.02;;;;;;;22.17;74.07;100119.63;5028627;28;20080;-69
2021/07/09 04:54:55;;;;;;;16.17;10.63;;;;;;;22.11;74.54;100109.63;5029224;28;20057;-69
2021/07/09 04:57:22;;;;;;;12.95;10.05;;;;;;;21.98;74.82;100104.09;5029363;28;20148;-69
2021/07/09 04:59:51;;;;;;;12.45;10.90;;;;;;;21.86;75.02;100112.66;5025933;28;20633;-70
2021/07/09 05:02:18;;;;;;;13.32;9.98;;;;;;;21.80;75.17;100097.28;5027324;28;20049;-69
2021/07/09 05:04:45;;;;;;;12.73;10.63;;;;;;;21.71;75.11;100084.97;5027948;28;20133;-71
2021/07/09 05:07:12;;;;;;;14.90;9.27;;;;;;;21.61;75.70;100079.03;5026426;28;20045;-68
2021/07/09 05:09:40;;;;;;;16.83;12.65;;;;;;;21.52;76.05;100079.16;5027382;28;20568;-70
2021/07/09 05:12:07;;;;;;;16.92;8.48;;;;;;;21.50;76.07;100080.34;5027471;28;20046;-70
2021/07/09 05:14:34;;;;;;;18.60;11.07;;;;;;;21.43;76.26;100071.34;5025803;28;20057;-70
2021/07/09 05:17:01;;;;;;;15.32;11.70;;;;;;;21.38;76.36;100078.13;5027218;28;20056;-69
2021/07/09 05:19:28;;;;;;;16.60;13.63;;;;;;;21.36;76.24;100065.91;5028077;28;20050;-72
2021/07/09 05:21:55;;;;;;;19.02;12.35;;;;;;;21.33;76.65;100059.03;5025305;28;20472;-69
2021/07/09 05:24:25;;;;;;;19.20;14.00;;;;;;;21.36;76.58;100066.72;5025259;28;20051;-66
2021/07/09 05:26:54;;;;;;;23.08;16.20;;;;;;;21.38;76.79;100055.81;5027044;28;20099;-70
2021/07/09 05:29:20;;;;;;;19.48;13.32;;;;;;;21.33;76.87;100042.91;5024584;28;20249;-70
2021/07/09 05:31:47;;;;;;;22.25;13.00;;;;;;;21.35;76.64;100056.16;5026100;28;20485;-68
2021/07/09 05:34:15;;;;;;;13.07;9.10;;;;;;;21.35;76.62;100067.72;5027480;28;20049;-70
2021/07/09 05:36:42;;;;;;;17.83;11.27;;;;;;;21.32;76.69;100076.19;5024866;28;20053;-70
2021/07/09 06:48:43;;;;;;;9.60;7.25;;;;;;;26.04;65.58;100104.69;5145075;27;20707;-71
2021/07/09 06:51:11;;;;;;;10.68;7.53;;;;;;;26.63;63.48;100096.41;5141638;27;20570;-73
2021/07/09 06:53:39;;;;;;;11.93;9.48;;;;;;;26.77;64.03;100097.13;5139241;27;20039;-72
2021/07/09 06:56:06;;;;;;;9.82;8.82;;;;;;;26.74;64.60;100086.72;5141420;27;20051;-70
2021/07/09 06:58:33;;;;;;;9.95;8.32;;;;;;;26.92;64.56;100094.06;5141667;27;20039;-71
2021/07/09 07:01:00;;;;;;;10.05;7.88;;;;;;;27.16;63.56;100090.50;5142043;27;20047;-73
2021/07/09 07:03:26;;;;;;;10.60;8.50;;;;;;;27.32;63.24;100099.13;5144284;27;20051;-71
2021/07/09 07:05:55;;;;;;;11.05;8.27;;;;;;;27.57;62.44;100107.19;5143884;27;20043;-69
2021/07/09 07:08:23;;;;;;;8.70;7.80;;;;;;;27.94;61.92;100118.84;5140721;27;20130;-71
2021/07/09 07:10:51;;;;;;;9.52;7.63;;;;;;;28.31;61.07;100128.81;5143739;27;20047;-71
2021/07/09 07:13:18;;;;;;;10.38;8.23;;;;;;;28.44;60.62;100141.38;5141794;27;20039;-72
2021/07/09 07:15:45;;;;;;;10.23;7.93;;;;;;;28.85;58.32;100162.28;5140085;27;20121;-71
2021/07/09 07:18:13;;;;;;;9.15;8.23;;;;;;;29.22;57.53;100167.53;5140424;27;20053;-71
2021/07/09 07:20:42;;;;;;;12.63;9.35;;;;;;;29.63;56.08;100170.34;5140653;27;20039;-73
2021/07/09 07:23:12;;;;;;;10.15;7.53;;;;;;;29.83;55.74;100178.97;5140431;27;20042;-74
2021/07/09 07:25:40;;;;;;;9.68;8.52;;;;;;;29.99;55.02;100203.78;5143950;27;20039;-70
2021/07/09 07:28:07;;;;;;;13.70;9.23;;;;;;;29.92;55.42;100229.25;5140209;27;20046;-74
2021/07/09 07:30:35;;;;;;;10.63;8.57;;;;;;;29.63;55.71;100257.44;5123615;27;20043;-73
2021/07/09 07:33:03;;;;;;;12.25;9.60;;;;;;;29.38;54.87;100252.22;5142897;27;20548;-74
2021/07/09 07:35:30;;;;;;;12.30;11.02;;;;;;;28.72;55.52;100236.69;5142474;27;20047;-70
2021/07/09 07:37:58;;;;;;;13.75;12.07;;;;;;;27.63;58.56;100228.38;5140166;27;20080;-69
2021/07/09 07:40:26;;;;;;;12.68;10.95;;;;;;;27.02;59.15;100232.63;5121399;28;20051;-69
2021/07/09 07:42:53;;;;;;;12.48;10.60;;;;;;;26.49;59.79;100244.63;5122907;28;20463;-71
2021/07/09 07:45:20;;;;;;;11.48;10.23;;;;;;;26.14;61.46;100247.66;5119222;28;20054;-69
2021/07/09 07:47:47;;;;;;;10.05;9.05;;;;;;;26.40;61.32;100240.47;5096523;28;20488;-69
2021/07/09 07:50:16;;;;;;;15.32;10.68;;;;;;;26.69;59.86;100229.09;5084351;28;20040;-69
2021/07/09 07:52:43;;;;;;;13.68;12.02;;;;;;;26.57;60.20;100200.19;5083539;28;20602;-69
2021/07/09 07:55:11;;;;;;;11.02;9.85;;;;;;;26.32;60.19;100179.28;5083388;28;20507;-68
2021/07/09 07:57:39;;;;;;;11.00;9.70;;;;;;;26.50;59.88;100165.00;5084339;28;20044;-66
2021/07/09 08:00:08;;;;;;;16.17;11.77;;;;;;;26.74;59.35;100168.00;5084025;28;20051;-67
2021/07/09 08:02:37;;;;;;;16.40;11.38;;;;;;;26.87;58.86;100173.34;5084591;28;20055;-67
2021/07/09 08:05:05;;;;;;;12.25;10.95;;;;;;;26.90;58.76;100153.91;5084266;28;20044;-67
2021/07/09 08:07:32;;;;;;;12.48;9.80;;;;;;;27.14;58.65;100146.84;5083138;28;20048;-68
2021/07/09 08:09:59;;;;;;;12.93;10.25;;;;;;;27.90;56.33;100135.81;5083852;28;20040;-69
2021/07/09 08:12:26;;;;;;;9.88;8.93;;;;;;;27.69;55.87;100132.50;5083110;28;20047;-70
2021/07/09 08:14:54;;;;;;;16.05;8.52;;;;;;;27.68;55.75;100130.00;5066243;28;20047;-68
2021/07/09 08:17:23;;;;;;;10.77;8.95;;;;;;;27.60;56.02;100140.13;5084340;28;20047;-64
2021/07/09 08:19:50;;;;;;;13.68;9.85;;;;;;;27.64;56.23;100141.31;5083244;28;20044;-65
2021/07/09 08:22:17;;;;;;;10.85;9.32;;;;;;;27.74;55.74;100131.81;5083313;28;20616;-68
2021/07/09 08:24:43;;;;;;;11.48;9.85;;;;;;;27.72;56.78;100118.47;5083239;28;20099;-68
2021/07/09 08:27:10;;;;;;;10.27;9.15;;;;;;;27.90;56.94;100123.09;5083308;28;20040;-72
2021/07/09 08:29:37;;;;;;;9.98;8.88;;;;;;;28.16;56.51;100124.63;5083285;28;20502;-72
2021/07/09 08:32:06;;;;;;;13.48;11.85;;;;;;;27.95;55.19;100139.53;5083200;28;20528;-67
2021/07/09 08:34:34;;;;;;;13.30;12.10;;;;;;;27.84;55.74;100135.66;5030503;28;20130;-67
2021/07/09 08:37:00;;;;;;;12.98;10.38;;;;;;;27.79;56.16;100129.25;5081912;28;20044;-67
2021/07/09 08:39:27;;;;;;;12.30;10.85;;;;;;;27.90;56.30;100136.66;5080856;28;20143;-69
2021/07/09 08:41:56;;;;;;;11.55;10.45;;;;;;;27.97;56.22;100131.97;5082085;28;20086;-68
2021/07/09 08:44:24;;;;;;;10.52;9.02;;;;;;;28.26;55.85;100118.63;5082414;28;20058;-73
2021/07/09 08:46:54;;;;;;;11.23;9.30;;;;;;;28.54;55.95;100118.03;5101189;28;20545;-75
2021/07/09 08:49:23;;;;;;;11.75;8.65;;;;;;;28.78;55.53;100102.56;5107221;28;20048;-78
2021/07/09 08:51:50;;;;;;;10.30;9.18;;;;;;;28.97;54.96;100099.75;5104678;28;20055;-77
2021/07/09 08:54:19;;;;;;;14.02;9.63;;;;;;;28.84;55.37;100091.84;5104867;28;20522;-80
2021/07/09 08:56:48;;;;;;;10.13;9.15;;;;;;;28.81;55.62;100081.41;5105914;28;20071;-78
2021/07/09 08:59:15;;;;;;;12.90;9.65;;;;;;;28.71;56.24;100074.69;5113146;28;20047;-77
2021/07/09 09:01:54;;;;;;;10.82;9.55;;;;;;;28.85;55.84;100074.47;5084343;28;20686;-76
2021/07/09 09:04:28;;;;;;;13.05;10.25;;;;;;;28.80;56.45;100058.84;5105441;28;20082;-76
2021/07/09 09:07:05;;;;;;;13.30;10.20;;;;;;;28.79;56.96;100057.19;5105309;28;20086;-79
2021/07/09 09:09:36;;;;;;;12.88;10.63;;;;;;;28.76;57.25;100050.34;5102139;28;20112;-79
2021/07/09 09:12:09;;;;;;;10.70;9.25;;;;;;;28.85;57.49;100042.66;5090124;28;20090;-77
2021/07/09 09:14:39;;;;;;;10.45;9.43;;;;;;;29.05;57.29;100034.13;5106380;28;20047;-78
2021/07/09 09:17:37;;;;;;;13.13;9.40;;;;;;;29.07;56.91;100040.16;5104526;28;20057;-79
2021/07/09 09:20:14;;;;;;;12.45;11.25;;;;;;;29.12;57.37;100048.44;5042007;28;20049;-79
2021/07/09 09:22:55;;;;;;;12.82;9.52;;;;;;;29.21;56.79;100051.66;5053217;28;20052;-82
2021/07/09 09:25:24;;;;;;;11.13;8.80;;;;;;;29.41;56.74;100045.00;5051804;28;20079;-82
2021/07/09 09:28:05;;;;;;;16.67;10.48;;;;;;;29.58;56.20;100050.47;5046880;28;20068;-91
2021/07/09 09:30:32;;;;;;;11.52;10.38;;;;;;;29.59;56.15;100054.88;5045231;28;20049;-76
2021/07/09 09:33:04;;;;;;;10.32;9.32;;;;;;;29.83;56.39;100063.78;5040804;28;20049;-75
2021/07/09 09:35:34;;;;;;;10.07;9.07;;;;;;;30.07;55.86;100065.34;5040819;28;20045;-74
2021/07/09 09:38:04;;;;;;;13.30;10.75;;;;;;;30.12;55.18;100067.31;5038630;28;20160;-73
2021/07/09 09:40:32;;;;;;;12.50;10.15;;;;;;;30.09;55.38;100067.84;5038290;28;20047;-72
2021/07/09 09:43:05;;;;;;;11.02;9.93;;;;;;;30.17;55.24;100067.41;5037963;28;20260;-74
2021/07/09 09:45:32;;;;;;;14.25;10.95;;;;;;;30.23;54.87;100069.16;5037720;28;20183;-73
2021/07/09 09:48:05;;;;;;;10.77;9.77;;;;;;;30.37;54.42;100080.59;5039303;28;20053;-72
2021/07/09 09:50:42;;;;;;;14.00;10.68;;;;;;;30.51;54.30;100083.81;5037121;28;20056;-75
2021/07/09 09:53:09;;;;;;;11.75;10.55;;;;;;;30.84;53.63;100072.06;5039330;28;20056;-72
2021/07/09 09:55:36;;;;;;;12.25;10.35;;;;;;;31.09;53.85;100072.72;5064591;28;20101;-74
2021/07/09 09:58:12;;;;;;;13.52;10.00;;;;;;;31.24;53.32;100067.47;5101724;28;20055;-74
2021/07/09 10:00:42;;;;;;;13.93;11.60;;;;;;;31.49;52.57;100067.00;5102592;28;20054;-71
2021/07/09 10:03:09;;;;;;;13.75;11.48;;;;;;;31.52;52.14;100063.75;5103119;28;20047;-75
2021/07/09 10:05:39;;;;;;;12.95;11.23;;;;;;;31.92;52.04;100067.19;5105925;28;20047;-76
2021/07/09 10:08:11;;;;;;;15.45;10.82;;;;;;;32.09;51.22;100062.50;5104400;28;20505;-76
2021/07/09 10:10:38;;;;;;;12.98;10.98;;;;;;;32.03;51.68;100055.28;5103872;28;20162;-72
2021/07/09 10:13:06;;;;;;;13.27;10.85;;;;;;;32.31;50.99;100056.94;5102097;28;20078;-74
2021/07/09 10:15:33;;;;;;;12.18;10.40;;;;;;;32.60;50.40;100053.94;5102456;28;20055;-75
2021/07/09 10:18:01;;;;;;;13.98;11.32;;;;;;;32.49;50.44;100050.25;5101915;28;20055;-73
2021/07/09 10:20:31;;;;;;;13.75;11.38;;;;;;;32.26;50.50;100037.78;5100164;28;20151;-73
2021/07/09 10:23:02;;;;;;;11.20;10.10;;;;;;;32.12;50.50;100045.56;5103543;28;20092;-74
2021/07/09 10:25:30;;;;;;;11.55;10.23;;;;;;;31.99;51.21;100043.25;5102212;28;20055;-74
2021/07/09 10:27:57;;;;;;;13.20;10.93;;;;;;;31.89;52.13;100040.41;5101310;28;20047;-82
2021/07/09 10:30:36;;;;;;;12.38;10.45;;;;;;;31.87;51.90;100037.09;5103989;28;20475;-80
2021/07/09 10:33:23;;;;;;;13.57;10.75;;;;;;;31.71;51.99;100038.84;5105236;28;20537;-79
2021/07/09 10:35:50;;;;;;;11.82;10.68;;;;;;;31.69;52.26;100030.09;5102206;28;20090;-83
2021/07/09 10:38:22;;;;;;;12.02;10.90;;;;;;;31.78;52.58;100028.53;5101738;28;20134;-79
2021/07/09 10:40:50;;;;;;;11.73;10.63;;;;;;;31.87;52.20;100021.53;5102371;28;20050;-78
2021/07/09 10:43:20;;;;;;;12.57;11.27;;;;;;;31.87;52.03;100015.25;5104348;28;20060;-79
2021/07/09 10:45:47;;;;;;;12.00;10.90;;;;;;;31.77;52.59;100014.06;5104475;28;20042;-80
2021/07/09 10:48:17;;;;;;;13.60;12.23;;;;;;;31.72;52.64;100013.19;5106196;28;20055;-80
2021/07/09 10:50:47;;;;;;;14.48;12.18;;;;;;;31.76;52.86;100009.69;5112355;28;20414;-81
2021/07/09 10:53:25;;;;;;;14.38;12.75;;;;;;;32.00;52.52;100012.94;5111017;28;20719;-80
2021/07/09 10:56:02;;;;;;;14.13;11.27;;;;;;;32.07;51.21;100004.56;5112981;28;20054;-78
2021/07/09 10:58:39;;;;;;;13.13;11.93;;;;;;;32.15;51.80;100006.81;5108037;28;20403;-80
2021/07/09 11:01:36;;;;;;;17.98;11.90;;;;;;;32.20;51.16;99998.66;5108273;28;20676;-79
2021/07/09 11:04:14;;;;;;;12.60;11.32;;;;;;;32.26;50.89;99996.78;5118806;28;20046;-79
2021/07/09 11:06:43;;;;;;;14.60;12.25;;;;;;;32.30;50.36;99991.63;5123943;28;20040;-83
2021/07/09 11:09:13;;;;;;;11.85;10.60;;;;;;;32.43;50.39;99996.66;5113951;28;20051;-85
2021/07/09 11:11:48;;;;;;;13.10;11.65;;;;;;;32.60;50.12;99995.69;5122593;28;20053;-81
2021/07/09 11:14:17;;;;;;;15.10;11.60;;;;;;;32.76;49.91;99990.03;5126679;28;20093;-78
2021/07/09 11:16:45;;;;;;;13.55;11.85;;;;;;;33.13;49.16;99991.06;5124330;28;20115;-82
2021/07/09 11:19:16;;;;;;;13.23;11.93;;;;;;;33.21;48.22;99976.88;5112742;28;20415;-81
2021/07/09 11:22:08;;;;;;;11.80;10.60;;;;;;;33.16;49.39;99987.78;5117636;28;20071;-83
2021/07/09 11:24:42;;;;;;;12.80;11.35;;;;;;;33.21;48.84;99996.03;5117461;28;20035;-82
2021/07/09 11:27:11;;;;;;;12.80;11.48;;;;;;;33.15;48.14;99986.13;5118197;28;20074;-82
2021/07/09 11:29:40;;;;;;;18.20;11.73;;;;;;;33.00;48.71;99986.88;5116928;28;20043;-82
2021/07/09 11:32:11;;;;;;;15.85;12.27;;;;;;;33.09;48.53;99979.78;5111151;28;20174;-80
2021/07/09 11:34:41;;;;;;;12.50;11.38;;;;;;;33.26;47.75;99982.38;5111257;28;20044;-81
2021/07/09 11:37:10;;;;;;;14.23;11.88;;;;;;;33.33;47.06;99982.94;5111393;28;20446;-83
2021/07/09 11:39:41;;;;;;;13.65;12.20;;;;;;;33.25;47.70;99975.22;5110004;28;20115;-77
2021/07/09 11:42:10;;;;;;;16.35;12.13;;;;;;;33.28;48.05;99977.44;5109211;28;20079;-83
2021/07/09 11:44:43;;;;;;;13.98;12.57;;;;;;;33.72;47.81;99976.19;5118679;28;20059;-83
2021/07/09 11:47:12;;;;;;;13.95;12.57;;;;;;;34.19;46.59;99974.31;5111776;28;20052;-84
2021/07/09 11:49:41;;;;;;;14.43;13.13;;;;;;;34.40;46.17;99978.69;5112137;28;20052;-80
2021/07/09 11:52:10;;;;;;;13.60;12.20;;;;;;;34.58;44.54;99973.72;5109316;28;20055;-84
2021/07/09 11:54:45;;;;;;;14.45;11.85;;;;;;;34.61;44.66;99963.03;5121071;28;20036;-79
2021/07/09 11:57:15;;;;;;;14.20;12.55;;;;;;;34.63;43.51;99962.75;5110968;28;20059;-79
2021/07/09 11:59:44;;;;;;;14.00;12.60;;;;;;;34.27;44.03;99968.28;5108595;28;20048;-79
2021/07/09 12:02:13;;;;;;;12.85;11.48;;;;;;;33.99;44.83;99967.72;5092396;28;20046;-81
2021/07/09 12:04:43;;;;;;;13.73;11.95;;;;;;;33.72;45.41;99974.25;5114989;28;20054;-78
2021/07/09 12:07:23;;;;;;;13.02;11.70;;;;;;;33.71;46.13;99975.38;5121488;28;20039;-80
2021/07/09 12:09:53;;;;;;;12.00;10.65;;;;;;;34.08;44.64;99974.28;5120268;28;20059;-84
2021/07/09 12:12:21;;;;;;;11.70;9.85;;;;;;;34.26;44.83;99966.63;5067236;28;20734;-82
2021/07/09 12:14:58;;;;;;;11.18;10.07;;;;;;;34.26;44.48;99967.44;5119487;28;20027;-82
2021/07/09 12:17:27;;;;;;;14.05;12.35;;;;;;;34.16;44.75;99956.50;5120763;28;20047;-80
2021/07/09 12:20:01;;;;;;;13.77;11.75;;;;;;;34.18;44.81;99951.59;5122277;28;20048;-81
2021/07/09 12:22:30;;;;;;;13.15;11.82;;;;;;;34.41;44.19;99944.69;5125483;28;20403;-80
2021/07/09 12:25:01;;;;;;;14.20;10.50;;;;;;;34.35;44.48;99936.75;5124186;28;20044;-77
2021/07/09 12:27:32;;;;;;;13.18;11.90;;;;;;;34.47;44.11;99934.53;5122361;28;20036;-78
2021/07/09 12:30:04;;;;;;;12.52;10.80;;;;;;;34.32;43.81;99938.09;5126659;28;20044;-78
2021/07/09 12:32:31;;;;;;;13.18;11.52;;;;;;;34.20;44.37;99935.69;5115400;28;20070;-78